sensor_id;sensor_type;location;lat;lon;timestamp;pressure;altitude;pressure_sealevel;temperature;humidity
73817;BME280;62146;53.232;-1.304;2022-10-31T00:01:09;100274.50;;;11.68;100.00
73817;BME280;62146;53.232;-1.304;2022-10-31T00:03:35;100277.72;;;11.70;100.00
73817;BME280;62146;53.232;-1.304;2022-10-31T00:06:02;100280.38;;;11.70;100.00
73817;BME280;62146;53.232;-1.304;2022-10-31T00:08:29;100279.81;;;11.68;100.00
73817;BME280;62146;53.232;-1.304;2022-10-31T00:10:55;100281.69;;;11.67;100.00
73817;BME280;62146;53.232;-1.304;2022-10-31T00:13:22;100285.13;;;11.68;100.00
73817;BME280;62146;53.232;-1.304;2022-10-31T00:15:48;100279.81;;;11.68;100.00
73817;BME280;62146;53.232;-1.304;2022-10-31T00:18:15;100271.84;;;11.68;100.00
73817;BME280;62146;53.232;-1.304;2022-10-31T00:20:41;100279.03;;;11.67;100.00
73817;BME280;62146;53.232;-1.304;2022-10-31T00:23:09;100279.28;;;11.66;100.00
73817;BME280;62146;53.232;-1.304;2022-10-31T00:25:38;100282.47;;;11.68;100.00
73817;BME280;62146;53.232;-1.304;2022-10-31T00:28:06;100289.66;;;11.67;100.00
73817;BME280;62146;53.232;-1.304;2022-10-31T00:30:33;100287.78;;;11.68;100.00
73817;BME280;62146;53.232;-1.304;2022-10-31T00:33:00;100281.69;;;11.67;100.00
73817;BME280;62146;53.232;-1.304;2022-10-31T00:35:29;100290.72;;;11.66;100.00
73817;BME280;62146;53.232;-1.304;2022-10-31T00:37:55;100290.94;;;11.65;100.00
73817;BME280;62146;53.232;-1.304;2022-10-31T00:40:22;100282.75;;;11.66;100.00
73817;BME280;62146;53.232;-1.304;2022-10-31T00:42:48;100290.72;;;11.66;100.00
73817;BME280;62146;53.232;-1.304;2022-10-31T00:45:15;100282.44;;;11.63;100.00
73817;BME280;62146;53.232;-1.304;2022-10-31T00:47:41;100289.59;;;11.62;100.00
73817;BME280;62146;53.232;-1.304;2022-10-31T00:50:08;100290.94;;;11.65;100.00
73817;BME280;62146;53.232;-1.304;2022-10-31T00:52:35;100284.53;;;11.61;100.00
73817;BME280;62146;53.232;-1.304;2022-10-31T00:55:01;100290.63;;;11.61;100.00
73817;BME280;62146;53.232;-1.304;2022-10-31T00:57:28;100292.00;;;11.64;100.00
73817;BME280;62146;53.232;-1.304;2022-10-31T00:59:54;100289.09;;;11.65;100.00
73817;BME280;62146;53.232;-1.304;2022-10-31T01:02:21;100298.19;;;11.69;100.00
73817;BME280;62146;53.232;-1.304;2022-10-31T01:04:48;100298.47;;;11.73;100.00
73817;BME280;62146;53.232;-1.304;2022-10-31T01:07:14;100303.53;;;11.74;100.00
73817;BME280;62146;53.232;-1.304;2022-10-31T01:09:41;100307.31;;;11.78;100.00
73817;BME280;62146;53.232;-1.304;2022-10-31T01:12:08;100303.38;;;11.80;100.00
73817;BME280;62146;53.232;-1.304;2022-10-31T01:14:34;100302.84;;;11.83;100.00
73817;BME280;62146;53.232;-1.304;2022-10-31T01:17:01;100303.16;;;11.87;100.00
73817;BME280;62146;53.232;-1.304;2022-10-31T01:19:27;100308.78;;;11.90;100.00
73817;BME280;62146;53.232;-1.304;2022-10-31T01:21:54;100304.25;;;11.91;100.00
73817;BME280;62146;53.232;-1.304;2022-10-31T01:24:21;100299.50;;;11.93;99.82
73817;BME280;62146;53.232;-1.304;2022-10-31T01:26:48;100303.50;;;11.95;99.43
73817;BME280;62146;53.232;-1.304;2022-10-31T01:29:14;100310.44;;;11.96;98.96
73817;BME280;62146;53.232;-1.304;2022-10-31T01:31:41;100308.31;;;11.98;98.71
73817;BME280;62146;53.232;-1.304;2022-10-31T01:34:14;100306.22;;;12.00;98.93
73817;BME280;62146;53.232;-1.304;2022-10-31T01:36:41;100304.09;;;12.02;98.64
73817;BME280;62146;53.232;-1.304;2022-10-31T01:39:13;100300.38;;;12.03;97.95
73817;BME280;62146;53.232;-1.304;2022-10-31T01:41:46;100296.69;;;12.04;98.21
73817;BME280;62146;53.232;-1.304;2022-10-31T01:46:56;100311.13;;;12.13;98.28
73817;BME280;62146;53.232;-1.304;2022-10-31T01:49:36;100299.97;;;12.11;98.21
73817;BME280;62146;53.232;-1.304;2022-10-31T01:52:09;100310.38;;;12.17;98.22
73817;BME280;62146;53.232;-1.304;2022-10-31T01:54:41;100298.69;;;12.18;98.26
73817;BME280;62146;53.232;-1.304;2022-10-31T01:57:12;100301.59;;;12.17;98.09
73817;BME280;62146;53.232;-1.304;2022-10-31T01:59:43;100302.41;;;12.17;98.49
73817;BME280;62146;53.232;-1.304;2022-10-31T02:02:13;100314.44;;;12.25;98.44
73817;BME280;62146;53.232;-1.304;2022-10-31T02:04:41;100315.78;;;12.27;98.39
73817;BME280;62146;53.232;-1.304;2022-10-31T02:07:12;100314.47;;;12.30;98.54
73817;BME280;62146;53.232;-1.304;2022-10-31T02:09:40;100312.38;;;12.31;98.40
73817;BME280;62146;53.232;-1.304;2022-10-31T02:12:09;100311.31;;;12.32;98.47
73817;BME280;62146;53.232;-1.304;2022-10-31T02:14:37;100310.50;;;12.32;98.76
73817;BME280;62146;53.232;-1.304;2022-10-31T02:17:04;100323.84;;;12.37;98.78
73817;BME280;62146;53.232;-1.304;2022-10-31T02:19:54;100318.28;;;12.38;98.69
73817;BME280;62146;53.232;-1.304;2022-10-31T02:33:52;100315.13;;;12.41;98.74
73817;BME280;62146;53.232;-1.304;2022-10-31T02:36:27;100319.94;;;12.44;98.84
73817;BME280;62146;53.232;-1.304;2022-10-31T02:44:42;100308.78;;;12.47;98.81
73817;BME280;62146;53.232;-1.304;2022-10-31T02:47:14;100310.16;;;12.50;99.09
73817;BME280;62146;53.232;-1.304;2022-10-31T02:50:01;100304.84;;;12.50;99.20
73817;BME280;62146;53.232;-1.304;2022-10-31T02:52:31;100306.69;;;12.49;99.31
73817;BME280;62146;53.232;-1.304;2022-10-31T02:54:58;100308.81;;;12.52;99.42
73817;BME280;62146;53.232;-1.304;2022-10-31T02:57:31;100308.81;;;12.52;99.68
73817;BME280;62146;53.232;-1.304;2022-10-31T03:00:02;100302.16;;;12.50;99.22
73817;BME280;62146;53.232;-1.304;2022-10-31T03:08:50;100305.38;;;12.52;100.00
73817;BME280;62146;53.232;-1.304;2022-10-31T03:11:23;100296.28;;;12.48;100.00
73817;BME280;62146;53.232;-1.304;2022-10-31T03:14:05;100302.97;;;12.50;100.00
73817;BME280;62146;53.232;-1.304;2022-10-31T03:16:45;100300.53;;;12.49;100.00
73817;BME280;62146;53.232;-1.304;2022-10-31T03:19:28;100293.41;;;12.49;100.00
73817;BME280;62146;53.232;-1.304;2022-10-31T03:22:02;100289.63;;;12.45;100.00
73817;BME280;62146;53.232;-1.304;2022-10-31T03:24:34;100284.31;;;12.45;100.00
73817;BME280;62146;53.232;-1.304;2022-10-31T03:27:05;100285.41;;;12.49;100.00
73817;BME280;62146;53.232;-1.304;2022-10-31T03:29:36;100268.34;;;12.45;100.00
73817;BME280;62146;53.232;-1.304;2022-10-31T03:32:10;100275.31;;;12.51;100.00
73817;BME280;62146;53.232;-1.304;2022-10-31T03:34:41;100273.16;;;12.48;100.00
73817;BME280;62146;53.232;-1.304;2022-10-31T03:37:11;100271.59;;;12.52;100.00
73817;BME280;62146;53.232;-1.304;2022-10-31T03:39:41;100268.41;;;12.55;100.00
73817;BME280;62146;53.232;-1.304;2022-10-31T03:42:20;100265.53;;;12.57;100.00
73817;BME280;62146;53.232;-1.304;2022-10-31T03:44:53;100270.56;;;12.58;100.00
73817;BME280;62146;53.232;-1.304;2022-10-31T03:47:22;100267.13;;;12.57;100.00
73817;BME280;62146;53.232;-1.304;2022-10-31T03:49:49;100276.16;;;12.57;100.00
73817;BME280;62146;53.232;-1.304;2022-10-31T03:52:26;100269.47;;;12.54;100.00
73817;BME280;62146;53.232;-1.304;2022-10-31T03:55:09;100272.44;;;12.57;100.00
73817;BME280;62146;53.232;-1.304;2022-10-31T03:57:41;100272.44;;;12.57;100.00
73817;BME280;62146;53.232;-1.304;2022-10-31T04:00:14;100268.41;;;12.55;100.00
73817;BME280;62146;53.232;-1.304;2022-10-31T04:02:50;100271.63;;;12.57;100.00
73817;BME280;62146;53.232;-1.304;2022-10-31T04:05:18;100271.63;;;12.57;100.00
73817;BME280;62146;53.232;-1.304;2022-10-31T04:07:47;100269.22;;;12.56;100.00
73817;BME280;62146;53.232;-1.304;2022-10-31T04:10:16;100269.22;;;12.56;100.00
73817;BME280;62146;53.232;-1.304;2022-10-31T04:12:48;100271.63;;;12.57;100.00
73817;BME280;62146;53.232;-1.304;2022-10-31T04:15:17;100272.66;;;12.56;100.00
73817;BME280;62146;53.232;-1.304;2022-10-31T04:17:47;100278.00;;;12.56;100.00
73817;BME280;62146;53.232;-1.304;2022-10-31T04:20:17;100267.13;;;12.57;100.00
73817;BME280;62146;53.232;-1.304;2022-10-31T04:22:43;100265.25;;;12.58;100.00
73817;BME280;62146;53.232;-1.304;2022-10-31T04:25:10;100272.16;;;12.59;100.00
73817;BME280;62146;53.232;-1.304;2022-10-31T04:27:37;100284.19;;;12.61;100.00
73817;BME280;62146;53.232;-1.304;2022-10-31T04:30:03;100281.50;;;12.61;100.00
73817;BME280;62146;53.232;-1.304;2022-10-31T04:32:30;100280.44;;;12.62;100.00
73817;BME280;62146;53.232;-1.304;2022-10-31T04:34:57;100278.34;;;12.64;100.00
73817;BME280;62146;53.232;-1.304;2022-10-31T04:37:23;100286.34;;;12.64;100.00
73817;BME280;62146;53.232;-1.304;2022-10-31T04:39:50;100285.25;;;12.65;100.00
73817;BME280;62146;53.232;-1.304;2022-10-31T04:42:16;100278.09;;;12.66;100.00
73817;BME280;62146;53.232;-1.304;2022-10-31T04:44:42;100277.81;;;12.67;100.00
73817;BME280;62146;53.232;-1.304;2022-10-31T04:47:09;100276.78;;;12.68;100.00
73817;BME280;62146;53.232;-1.304;2022-10-31T04:49:36;100274.13;;;12.68;100.00
73817;BME280;62146;53.232;-1.304;2022-10-31T04:52:02;100271.19;;;12.70;100.00
73817;BME280;62146;53.232;-1.304;2022-10-31T04:54:29;100270.13;;;12.71;100.00
73817;BME280;62146;53.232;-1.304;2022-10-31T04:56:56;100264.81;;;12.71;100.00
73817;BME280;62146;53.232;-1.304;2022-10-31T04:59:22;100257.63;;;12.71;100.00
73817;BME280;62146;53.232;-1.304;2022-10-31T05:01:49;100254.16;;;12.71;100.00
73817;BME280;62146;53.232;-1.304;2022-10-31T05:04:16;100251.50;;;12.71;100.00
73817;BME280;62146;53.232;-1.304;2022-10-31T05:06:42;100243.22;;;12.67;100.00
73817;BME280;62146;53.232;-1.304;2022-10-31T05:09:09;100247.75;;;12.67;100.00
73817;BME280;62146;53.232;-1.304;2022-10-31T05:11:35;100238.44;;;12.64;100.00
73817;BME280;62146;53.232;-1.304;2022-10-31T05:14:02;100237.59;;;12.64;100.00
73817;BME280;62146;53.232;-1.304;2022-10-31T05:16:28;100228.31;;;12.61;100.00
73817;BME280;62146;53.232;-1.304;2022-10-31T05:18:55;100223.22;;;12.60;100.00
73817;BME280;62146;53.232;-1.304;2022-10-31T05:21:21;100225.88;;;12.60;100.00
73817;BME280;62146;53.232;-1.304;2022-10-31T05:23:48;100228.31;;;12.61;100.00
73817;BME280;62146;53.232;-1.304;2022-10-31T05:26:16;100231.75;;;12.62;100.00
73817;BME280;62146;53.232;-1.304;2022-10-31T05:28:42;100224.31;;;12.64;100.00
73817;BME280;62146;53.232;-1.304;2022-10-31T05:31:09;100223.00;;;12.66;100.00
73817;BME280;62146;53.232;-1.304;2022-10-31T05:33:36;100219.53;;;12.66;100.00
73817;BME280;62146;53.232;-1.304;2022-10-31T05:36:02;100213.16;;;12.67;100.00
73817;BME280;62146;53.232;-1.304;2022-10-31T05:38:29;100214.75;;;12.68;100.00
73817;BME280;62146;53.232;-1.304;2022-10-31T05:40:55;100214.75;;;12.68;100.00
73817;BME280;62146;53.232;-1.304;2022-10-31T05:43:28;100210.00;;;12.70;100.00
73817;BME280;62146;53.232;-1.304;2022-10-31T05:45:55;100220.16;;;12.73;100.00
73817;BME280;62146;53.232;-1.304;2022-10-31T05:48:22;100207.66;;;12.73;100.00
73817;BME280;62146;53.232;-1.304;2022-10-31T05:50:49;100212.97;;;12.73;100.00
73817;BME280;62146;53.232;-1.304;2022-10-31T05:53:16;100221.75;;;12.74;100.00
73817;BME280;62146;53.232;-1.304;2022-10-31T05:55:43;100209.25;;;12.74;100.00
73817;BME280;62146;53.232;-1.304;2022-10-31T05:58:10;100213.50;;;12.75;100.00
73817;BME280;62146;53.232;-1.304;2022-10-31T06:00:37;100215.38;;;12.75;100.00
73817;BME280;62146;53.232;-1.304;2022-10-31T06:03:06;100222.03;;;12.72;100.00
73817;BME280;62146;53.232;-1.304;2022-10-31T06:05:37;100218.78;;;12.70;100.00
73817;BME280;62146;53.232;-1.304;2022-10-31T06:08:04;100224.38;;;12.69;100.00
73817;BME280;62146;53.232;-1.304;2022-10-31T06:10:31;100220.63;;;12.65;100.00
73817;BME280;62146;53.232;-1.304;2022-10-31T06:12:57;100221.13;;;12.62;100.00
73817;BME280;62146;53.232;-1.304;2022-10-31T06:15:24;100222.97;;;12.61;100.00
73817;BME280;62146;53.232;-1.304;2022-10-31T06:17:58;100230.16;;;12.61;100.00
73817;BME280;62146;53.232;-1.304;2022-10-31T06:20:25;100222.97;;;12.61;100.00
73817;BME280;62146;53.232;-1.304;2022-10-31T06:22:52;100228.03;;;12.63;100.00
73817;BME280;62146;53.232;-1.304;2022-10-31T06:25:18;100226.16;;;12.63;100.00
73817;BME280;62146;53.232;-1.304;2022-10-31T06:27:45;100220.34;;;12.66;100.00
73817;BME280;62146;53.232;-1.304;2022-10-31T06:30:12;100221.69;;;12.69;100.00
73817;BME280;62146;53.232;-1.304;2022-10-31T06:32:38;100227.34;;;12.72;100.00
73817;BME280;62146;53.232;-1.304;2022-10-31T06:35:05;100215.84;;;12.72;100.00
73817;BME280;62146;53.232;-1.304;2022-10-31T06:37:32;100215.63;;;12.73;100.00
73817;BME280;62146;53.232;-1.304;2022-10-31T06:39:58;100210.84;;;12.75;100.00
73817;BME280;62146;53.232;-1.304;2022-10-31T06:42:25;100210.59;;;12.77;100.00
73817;BME280;62146;53.232;-1.304;2022-10-31T06:44:51;100211.13;;;12.79;100.00
73817;BME280;62146;53.232;-1.304;2022-10-31T06:47:18;100211.13;;;12.79;100.00
73817;BME280;62146;53.232;-1.304;2022-10-31T06:49:44;100212.75;;;12.80;100.00
73817;BME280;62146;53.232;-1.304;2022-10-31T06:52:11;100214.34;;;12.81;100.00
73817;BME280;62146;53.232;-1.304;2022-10-31T06:54:37;100206.88;;;12.83;100.00
73817;BME280;62146;53.232;-1.304;2022-10-31T06:57:04;100211.19;;;12.84;100.00
73817;BME280;62146;53.232;-1.304;2022-10-31T06:59:30;100203.72;;;12.85;100.00
73817;BME280;62146;53.232;-1.304;2022-10-31T07:01:57;100207.97;;;12.86;100.00
73817;BME280;62146;53.232;-1.304;2022-10-31T07:04:25;100207.97;;;12.86;100.00
73817;BME280;62146;53.232;-1.304;2022-10-31T07:06:51;100205.88;;;12.88;100.00
73817;BME280;62146;53.232;-1.304;2022-10-31T07:09:22;100208.25;;;12.90;100.00
73817;BME280;62146;53.232;-1.304;2022-10-31T07:11:48;100210.13;;;12.89;100.00
73817;BME280;62146;53.232;-1.304;2022-10-31T07:14:17;100212.56;;;12.91;100.00
73817;BME280;62146;53.232;-1.304;2022-10-31T07:16:48;100211.47;;;12.92;100.00
73817;BME280;62146;53.232;-1.304;2022-10-31T07:19:14;100210.41;;;12.93;100.00
73817;BME280;62146;53.232;-1.304;2022-10-31T07:21:41;100209.91;;;12.96;100.00
73817;BME280;62146;53.232;-1.304;2022-10-31T07:24:08;100209.09;;;12.95;100.00
73817;BME280;62146;53.232;-1.304;2022-10-31T07:26:34;100200.84;;;12.97;100.00
73817;BME280;62146;53.232;-1.304;2022-10-31T07:29:01;100206.97;;;12.97;100.00
73817;BME280;62146;53.232;-1.304;2022-10-31T07:31:27;100207.53;;;12.99;100.00
73817;BME280;62146;53.232;-1.304;2022-10-31T07:33:54;100199.28;;;13.01;100.00
73817;BME280;62146;53.232;-1.304;2022-10-31T07:36:20;100205.38;;;13.01;100.00
73817;BME280;62146;53.232;-1.304;2022-10-31T07:38:46;100206.75;;;13.04;100.00
73817;BME280;62146;53.232;-1.304;2022-10-31T07:41:13;100217.13;;;13.05;100.00
73817;BME280;62146;53.232;-1.304;2022-10-31T07:43:39;100215.81;;;13.08;100.00
73817;BME280;62146;53.232;-1.304;2022-10-31T07:46:06;100204.91;;;13.09;100.00
73817;BME280;62146;53.232;-1.304;2022-10-31T07:48:33;100209.97;;;13.11;100.00
73817;BME280;62146;53.232;-1.304;2022-10-31T07:50:59;100215.03;;;13.12;100.00
73817;BME280;62146;53.232;-1.304;2022-10-31T07:53:26;100211.84;;;13.15;100.00
73817;BME280;62146;53.232;-1.304;2022-10-31T07:55:52;100220.38;;;13.17;100.00
73817;BME280;62146;53.232;-1.304;2022-10-31T07:58:19;100216.41;;;13.19;100.00
73817;BME280;62146;53.232;-1.304;2022-10-31T08:00:46;100216.13;;;13.21;100.00
73817;BME280;62146;53.232;-1.304;2022-10-31T08:03:16;100206.03;;;13.23;100.00
73817;BME280;62146;53.232;-1.304;2022-10-31T08:05:44;100216.16;;;13.26;100.00
73817;BME280;62146;53.232;-1.304;2022-10-31T08:08:14;100211.38;;;13.28;100.00
73817;BME280;62146;53.232;-1.304;2022-10-31T08:10:41;100222.31;;;13.31;100.00
73817;BME280;62146;53.232;-1.304;2022-10-31T08:13:10;100218.31;;;13.34;100.00
73817;BME280;62146;53.232;-1.304;2022-10-31T08:15:37;100231.13;;;13.37;100.00
73817;BME280;62146;53.232;-1.304;2022-10-31T08:18:13;100232.72;;;13.38;100.00
73817;BME280;62146;53.232;-1.304;2022-10-31T08:20:41;100228.72;;;13.40;100.00
73817;BME280;62146;53.232;-1.304;2022-10-31T08:23:09;100234.59;;;13.42;100.00
73817;BME280;62146;53.232;-1.304;2022-10-31T08:25:36;100233.00;;;13.46;100.00
73817;BME280;62146;53.232;-1.304;2022-10-31T08:28:05;100238.63;;;13.49;100.00
73817;BME280;62146;53.232;-1.304;2022-10-31T08:30:34;100221.31;;;13.52;100.00
73817;BME280;62146;53.232;-1.304;2022-10-31T08:33:16;100220.25;;;13.53;100.00
73817;BME280;62146;53.232;-1.304;2022-10-31T08:35:43;100219.47;;;13.57;100.00
73817;BME280;62146;53.232;-1.304;2022-10-31T08:38:11;100214.41;;;13.61;100.00
73817;BME280;62146;53.232;-1.304;2022-10-31T08:40:39;100219.22;;;13.64;100.00
73817;BME280;62146;53.232;-1.304;2022-10-31T08:43:13;100216.81;;;13.67;100.00
73817;BME280;62146;53.232;-1.304;2022-10-31T08:45:40;100217.91;;;13.71;100.00
73817;BME280;62146;53.232;-1.304;2022-10-31T08:48:10;100228.00;;;13.74;100.00
73817;BME280;62146;53.232;-1.304;2022-10-31T08:50:38;100223.75;;;13.78;100.00
73817;BME280;62146;53.232;-1.304;2022-10-31T08:53:07;100221.63;;;13.80;100.00
73817;BME280;62146;53.232;-1.304;2022-10-31T08:55:36;100218.44;;;13.83;100.00
73817;BME280;62146;53.232;-1.304;2022-10-31T08:58:05;100204.31;;;13.82;100.00
73817;BME280;62146;53.232;-1.304;2022-10-31T09:00:34;100213.41;;;13.86;100.00
73817;BME280;62146;53.232;-1.304;2022-10-31T09:03:03;100211.53;;;13.87;100.00
73817;BME280;62146;53.232;-1.304;2022-10-31T09:05:30;100210.44;;;13.92;100.00
73817;BME280;62146;53.232;-1.304;2022-10-31T09:07:58;100210.22;;;13.94;100.00
73817;BME280;62146;53.232;-1.304;2022-10-31T09:10:27;100212.63;;;13.95;100.00
73817;BME280;62146;53.232;-1.304;2022-10-31T09:12:58;100210.47;;;13.97;100.00
73817;BME280;62146;53.232;-1.304;2022-10-31T09:15:27;100205.69;;;13.99;100.00
73817;BME280;62146;53.232;-1.304;2022-10-31T09:17:54;100201.94;;;14.00;100.00
73817;BME280;62146;53.232;-1.304;2022-10-31T09:20:21;100208.63;;;14.03;100.00
73817;BME280;62146;53.232;-1.304;2022-10-31T09:22:48;100208.09;;;14.06;100.00
73817;BME280;62146;53.232;-1.304;2022-10-31T09:25:21;100198.22;;;14.06;100.00
73817;BME280;62146;53.232;-1.304;2022-10-31T09:27:47;100203.03;;;14.09;100.00
73817;BME280;62146;53.232;-1.304;2022-10-31T09:30:14;100207.03;;;14.12;100.00
73817;BME280;62146;53.232;-1.304;2022-10-31T09:32:40;100207.56;;;14.14;100.00
73817;BME280;62146;53.232;-1.304;2022-10-31T09:35:07;100198.22;;;14.16;100.00
73817;BME280;62146;53.232;-1.304;2022-10-31T09:37:34;100203.03;;;14.19;100.00
73817;BME280;62146;53.232;-1.304;2022-10-31T09:40:01;100200.91;;;14.21;100.00
73817;BME280;62146;53.232;-1.304;2022-10-31T09:42:37;100194.50;;;14.22;100.00
73817;BME280;62146;53.232;-1.304;2022-10-31T09:51:12;100165.66;;;14.34;100.00
73817;BME280;62146;53.232;-1.304;2022-10-31T09:56:24;100175.53;;;14.48;100.00
73817;BME280;62146;53.232;-1.304;2022-10-31T09:58:54;100177.38;;;14.57;100.00
73817;BME280;62146;53.232;-1.304;2022-10-31T10:03:55;100176.25;;;14.73;100.00
73817;BME280;62146;53.232;-1.304;2022-10-31T10:06:28;100174.91;;;14.80;100.00
73817;BME280;62146;53.232;-1.304;2022-10-31T10:08:56;100179.44;;;14.90;100.00
73817;BME280;62146;53.232;-1.304;2022-10-31T10:17:11;100178.53;;;15.04;100.00
73817;BME280;62146;53.232;-1.304;2022-10-31T10:20:15;100172.44;;;15.08;100.00
73817;BME280;62146;53.232;-1.304;2022-10-31T10:22:52;100176.16;;;15.12;100.00
73817;BME280;62146;53.232;-1.304;2022-10-31T10:25:24;100165.44;;;15.17;100.00
73817;BME280;62146;53.232;-1.304;2022-10-31T10:30:42;100167.00;;;15.28;100.00
73817;BME280;62146;53.232;-1.304;2022-10-31T10:33:15;100165.88;;;15.39;100.00
73817;BME280;62146;53.232;-1.304;2022-10-31T10:35:49;100166.94;;;15.43;100.00
73817;BME280;62146;53.232;-1.304;2022-10-31T10:38:29;100167.41;;;15.50;100.00
73817;BME280;62146;53.232;-1.304;2022-10-31T10:41:00;100164.72;;;15.54;100.00
73817;BME280;62146;53.232;-1.304;2022-10-31T10:43:38;100164.97;;;15.58;100.00
73817;BME280;62146;53.232;-1.304;2022-10-31T10:51:41;100146.41;;;15.71;100.00
73817;BME280;62146;53.232;-1.304;2022-10-31T10:57:32;100149.75;;;15.86;100.00
73817;BME280;62146;53.232;-1.304;2022-10-31T11:00:16;100139.88;;;15.87;100.00
73817;BME280;62146;53.232;-1.304;2022-10-31T11:02:43;100142.22;;;15.93;100.00
73817;BME280;62146;53.232;-1.304;2022-10-31T11:07:46;100140.81;;;16.01;100.00
73817;BME280;62146;53.232;-1.304;2022-10-31T11:10:14;100135.72;;;16.04;100.00
73817;BME280;62146;53.232;-1.304;2022-10-31T11:12:56;100136.22;;;16.06;100.00
73817;BME280;62146;53.232;-1.304;2022-10-31T11:15:24;100143.72;;;16.09;100.00
73817;BME280;62146;53.232;-1.304;2022-10-31T11:17:54;100134.63;;;16.10;100.00
73817;BME280;62146;53.232;-1.304;2022-10-31T11:20:26;100125.47;;;16.16;100.00
73817;BME280;62146;53.232;-1.304;2022-10-31T11:23:26;100116.59;;;16.20;100.00
73817;BME280;62146;53.232;-1.304;2022-10-31T11:28:21;100109.44;;;16.39;100.00
73817;BME280;62146;53.232;-1.304;2022-10-31T11:30:54;100106.44;;;16.45;100.00
73817;BME280;62146;53.232;-1.304;2022-10-31T11:35:54;100092.34;;;16.81;100.00
73817;BME280;62146;53.232;-1.304;2022-10-31T11:38:29;100094.53;;;16.97;100.00
73817;BME280;62146;53.232;-1.304;2022-10-31T11:41:04;100088.22;;;17.12;100.00
73817;BME280;62146;53.232;-1.304;2022-10-31T11:43:33;100086.34;;;17.30;100.00
73817;BME280;62146;53.232;-1.304;2022-10-31T11:46:08;100073.28;;;17.42;100.00
73817;BME280;62146;53.232;-1.304;2022-10-31T11:48:35;100068.28;;;17.54;100.00
73817;BME280;62146;53.232;-1.304;2022-10-31T11:51:04;100070.81;;;17.64;100.00
73817;BME280;62146;53.232;-1.304;2022-10-31T11:53:33;100071.44;;;17.74;100.00
73817;BME280;62146;53.232;-1.304;2022-10-31T11:56:14;100073.97;;;17.84;100.00
73817;BME280;62146;53.232;-1.304;2022-10-31T11:58:42;100056.38;;;17.91;100.00
73817;BME280;62146;53.232;-1.304;2022-10-31T12:01:28;100055.63;;;18.04;100.00
73817;BME280;62146;53.232;-1.304;2022-10-31T12:04:11;100055.38;;;18.19;100.00
73817;BME280;62146;53.232;-1.304;2022-10-31T12:06:41;100054.88;;;18.30;100.00
73817;BME280;62146;53.232;-1.304;2022-10-31T12:15:07;100028.03;;;18.70;100.00
73817;BME280;62146;53.232;-1.304;2022-10-31T12:17:52;100025.13;;;18.79;100.00
73817;BME280;62146;53.232;-1.304;2022-10-31T12:26:08;100020.47;;;19.20;100.00
73817;BME280;62146;53.232;-1.304;2022-10-31T12:56:14;99975.28;;;18.74;100.00
73817;BME280;62146;53.232;-1.304;2022-10-31T12:59:06;99960.16;;;18.64;100.00
73817;BME280;62146;53.232;-1.304;2022-10-31T13:01:39;99962.16;;;18.59;100.00
73817;BME280;62146;53.232;-1.304;2022-10-31T13:06:55;99948.94;;;18.49;100.00
73817;BME280;62146;53.232;-1.304;2022-10-31T13:09:33;99958.09;;;18.48;100.00
73817;BME280;62146;53.232;-1.304;2022-10-31T13:12:11;99952.72;;;18.48;100.00
73817;BME280;62146;53.232;-1.304;2022-10-31T13:14:42;99952.53;;;18.45;100.00
73817;BME280;62146;53.232;-1.304;2022-10-31T13:17:42;99945.06;;;18.42;100.00
73817;BME280;62146;53.232;-1.304;2022-10-31T13:20:27;99942.19;;;18.38;100.00
73817;BME280;62146;53.232;-1.304;2022-10-31T13:26:03;99928.69;;;18.30;100.00
73817;BME280;62146;53.232;-1.304;2022-10-31T13:28:38;99930.38;;;18.26;100.00
73817;BME280;62146;53.232;-1.304;2022-10-31T13:31:08;99912.38;;;18.26;100.00
73817;BME280;62146;53.232;-1.304;2022-10-31T13:33:48;99915.66;;;18.23;100.00
73817;BME280;62146;53.232;-1.304;2022-10-31T13:36:25;99910.09;;;18.20;100.00
73817;BME280;62146;53.232;-1.304;2022-10-31T13:39:03;99897.56;;;18.16;100.00
73817;BME280;62146;53.232;-1.304;2022-10-31T13:44:29;99885.84;;;18.12;100.00
73817;BME280;62146;53.232;-1.304;2022-10-31T13:47:03;99880.47;;;18.12;100.00
73817;BME280;62146;53.232;-1.304;2022-10-31T13:54:39;99873.00;;;18.22;100.00
73817;BME280;62146;53.232;-1.304;2022-10-31T13:57:49;99870.31;;;18.22;100.00
73817;BME280;62146;53.232;-1.304;2022-10-31T14:02:49;99866.06;;;18.21;100.00
73817;BME280;62146;53.232;-1.304;2022-10-31T14:05:23;99869.81;;;18.20;100.00
73817;BME280;62146;53.232;-1.304;2022-10-31T14:07:53;99858.41;;;18.15;100.00
73817;BME280;62146;53.232;-1.304;2022-10-31T14:12:51;99858.19;;;18.11;100.00
73817;BME280;62146;53.232;-1.304;2022-10-31T14:15:20;99854.72;;;18.11;100.00
73817;BME280;62146;53.232;-1.304;2022-10-31T14:17:50;99854.25;;;18.09;100.00
73817;BME280;62146;53.232;-1.304;2022-10-31T14:22:44;99845.69;;;18.07;100.00
73817;BME280;62146;53.232;-1.304;2022-10-31T14:25:34;99827.50;;;18.04;100.00
73817;BME280;62146;53.232;-1.304;2022-10-31T14:28:31;99834.28;;;18.01;100.00
73817;BME280;62146;53.232;-1.304;2022-10-31T14:30:59;99820.34;;;17.99;100.00
73817;BME280;62146;53.232;-1.304;2022-10-31T14:33:28;99832.44;;;17.97;100.00
73817;BME280;62146;53.232;-1.304;2022-10-31T14:39:25;99801.38;;;17.83;100.00
73817;BME280;62146;53.232;-1.304;2022-10-31T14:50:23;99785.28;;;17.69;100.00
73817;BME280;62146;53.232;-1.304;2022-10-31T14:52:56;99793.31;;;17.69;100.00
73817;BME280;62146;53.232;-1.304;2022-10-31T14:55:24;99788.06;;;17.65;100.00
73817;BME280;62146;53.232;-1.304;2022-10-31T14:57:55;99784.72;;;17.59;100.00
73817;BME280;62146;53.232;-1.304;2022-10-31T15:00:24;99788.00;;;17.56;100.00
73817;BME280;62146;53.232;-1.304;2022-10-31T15:03:21;99776.56;;;17.51;99.97